sensor_id;sensor_type;location;lat;lon;timestamp;temperature;humidity
7248;DHT22;3665;51.034;13.642;2022-09-09T00:01:20;14.00;1.00
7248;DHT22;3665;51.034;13.642;2022-09-09T00:07:10;13.90;7.30
7248;DHT22;3665;51.034;13.642;2022-09-09T00:21:07;13.80;1.90
7248;DHT22;3665;51.034;13.642;2022-09-09T00:25:05;14.00;1.00
7248;DHT22;3665;51.034;13.642;2022-09-09T00:30:19;14.00;1.00
7248;DHT22;3665;51.034;13.642;2022-09-09T00:35:22;14.00;1.00
7248;DHT22;3665;51.034;13.642;2022-09-09T00:41:03;14.10;1.00
7248;DHT22;3665;51.034;13.642;2022-09-09T00:46:49;14.10;1.00
7248;DHT22;3665;51.034;13.642;2022-09-09T00:53:53;14.10;1.00
7248;DHT22;3665;51.034;13.642;2022-09-09T01:22:18;13.80;1.00
7248;DHT22;3665;51.034;13.642;2022-09-09T01:27:27;13.90;1.00
7248;DHT22;3665;51.034;13.642;2022-09-09T01:32:45;13.80;1.00
7248;DHT22;3665;51.034;13.642;2022-09-09T01:37:31;13.60;1.00
7248;DHT22;3665;51.034;13.642;2022-09-09T01:47:40;13.50;1.00
7248;DHT22;3665;51.034;13.642;2022-09-09T01:58:37;13.60;1.00
7248;DHT22;3665;51.034;13.642;2022-09-09T02:03:41;13.40;1.00
7248;DHT22;3665;51.034;13.642;2022-09-09T02:08:43;13.40;1.00
7248;DHT22;3665;51.034;13.642;2022-09-09T02:13:51;13.50;1.00
7248;DHT22;3665;51.034;13.642;2022-09-09T02:19:37;13.40;6.40
7248;DHT22;3665;51.034;13.642;2022-09-09T02:25:20;13.40;2.50
7248;DHT22;3665;51.034;13.642;2022-09-09T02:30:54;13.20;12.30
7248;DHT22;3665;51.034;13.642;2022-09-09T02:42:50;13.30;17.90
7248;DHT22;3665;51.034;13.642;2022-09-09T02:48:13;13.40;5.20
7248;DHT22;3665;51.034;13.642;2022-09-09T02:53:49;13.50;1.00
7248;DHT22;3665;51.034;13.642;2022-09-09T02:59:59;13.60;1.00
7248;DHT22;3665;51.034;13.642;2022-09-09T03:05:31;13.80;1.00
7248;DHT22;3665;51.034;13.642;2022-09-09T03:11:02;13.80;1.00
7248;DHT22;3665;51.034;13.642;2022-09-09T03:16:35;14.00;1.00
7248;DHT22;3665;51.034;13.642;2022-09-09T03:22:25;13.90;1.00
7248;DHT22;3665;51.034;13.642;2022-09-09T03:27:12;13.90;1.00
7248;DHT22;3665;51.034;13.642;2022-09-09T03:32:15;13.80;1.00
7248;DHT22;3665;51.034;13.642;2022-09-09T03:37:02;13.70;1.00
7248;DHT22;3665;51.034;13.642;2022-09-09T03:43:33;13.70;1.00
7248;DHT22;3665;51.034;13.642;2022-09-09T03:48:32;13.60;1.00
7248;DHT22;3665;51.034;13.642;2022-09-09T03:53:51;13.50;1.00
7248;DHT22;3665;51.034;13.642;2022-09-09T03:59:27;13.40;1.00
7248;DHT22;3665;51.034;13.642;2022-09-09T04:09:53;13.30;1.00
7248;DHT22;3665;51.034;13.642;2022-09-09T04:14:47;13.30;1.00
7248;DHT22;3665;51.034;13.642;2022-09-09T04:20:31;13.30;1.00
7248;DHT22;3665;51.034;13.642;2022-09-09T04:25:57;13.20;11.00
7248;DHT22;3665;51.034;13.642;2022-09-09T04:31:19;13.30;8.40
7248;DHT22;3665;51.034;13.642;2022-09-09T04:37:11;13.20;26.30
7248;DHT22;3665;51.034;13.642;2022-09-09T04:43:02;13.10;57.00
7248;DHT22;3665;51.034;13.642;2022-09-09T04:48:07;13.10;52.70
7248;DHT22;3665;51.034;13.642;2022-09-09T05:06:17;13.40;7.00
7248;DHT22;3665;51.034;13.642;2022-09-09T05:12:06;13.60;7.90
7248;DHT22;3665;51.034;13.642;2022-09-09T05:24:05;14.10;1.00
7248;DHT22;3665;51.034;13.642;2022-09-09T05:40:17;14.50;1.00
7248;DHT22;3665;51.034;13.642;2022-09-09T05:45:33;14.70;1.00
7248;DHT22;3665;51.034;13.642;2022-09-09T05:50:56;14.80;1.00
7248;DHT22;3665;51.034;13.642;2022-09-09T05:55:59;14.90;1.00
7248;DHT22;3665;51.034;13.642;2022-09-09T06:01:39;14.90;1.00
7248;DHT22;3665;51.034;13.642;2022-09-09T06:07:02;14.90;1.00
7248;DHT22;3665;51.034;13.642;2022-09-09T06:12:54;15.10;1.00
7248;DHT22;3665;51.034;13.642;2022-09-09T06:18:10;15.50;1.00
7248;DHT22;3665;51.034;13.642;2022-09-09T06:23:29;15.70;1.00
7248;DHT22;3665;51.034;13.642;2022-09-09T06:29:18;15.80;1.00
7248;DHT22;3665;51.034;13.642;2022-09-09T06:34:25;15.90;1.00
7248;DHT22;3665;51.034;13.642;2022-09-09T06:39:56;16.00;1.00
7248;DHT22;3665;51.034;13.642;2022-09-09T06:45:28;16.00;1.00
7248;DHT22;3665;51.034;13.642;2022-09-09T06:50:17;16.30;1.00
7248;DHT22;3665;51.034;13.642;2022-09-09T06:56:25;16.60;1.00
7248;DHT22;3665;51.034;13.642;2022-09-09T07:02:26;17.00;1.00
7248;DHT22;3665;51.034;13.642;2022-09-09T07:07:56;17.40;1.00
7248;DHT22;3665;51.034;13.642;2022-09-09T07:13:32;18.10;1.00
7248;DHT22;3665;51.034;13.642;2022-09-09T07:25:14;19.00;1.00
7248;DHT22;3665;51.034;13.642;2022-09-09T07:36:25;19.90;1.00
7248;DHT22;3665;51.034;13.642;2022-09-09T07:42:03;20.00;1.00
7248;DHT22;3665;51.034;13.642;2022-09-09T07:53:28;21.40;1.00
7248;DHT22;3665;51.034;13.642;2022-09-09T07:59:15;21.40;1.00
7248;DHT22;3665;51.034;13.642;2022-09-09T08:04:40;21.30;1.00
7248;DHT22;3665;51.034;13.642;2022-09-09T08:09:46;21.50;1.00
7248;DHT22;3665;51.034;13.642;2022-09-09T08:15:32;20.80;1.00
7248;DHT22;3665;51.034;13.642;2022-09-09T08:20:22;20.20;1.00
7248;DHT22;3665;51.034;13.642;2022-09-09T08:26:14;20.50;1.00
7248;DHT22;3665;51.034;13.642;2022-09-09T08:32:10;20.80;1.00
7248;DHT22;3665;51.034;13.642;2022-09-09T08:37:47;20.60;1.00
7248;DHT22;3665;51.034;13.642;2022-09-09T09:01:26;22.20;1.00
7248;DHT22;3665;51.034;13.642;2022-09-09T09:07:31;22.10;1.00
7248;DHT22;3665;51.034;13.642;2022-09-09T09:12:41;21.90;1.00
7248;DHT22;3665;51.034;13.642;2022-09-09T09:18:43;21.10;1.00
7248;DHT22;3665;51.034;13.642;2022-09-09T09:23:36;20.50;1.00
7248;DHT22;3665;51.034;13.642;2022-09-09T09:29:29;20.40;1.00
7248;DHT22;3665;51.034;13.642;2022-09-09T09:35:40;20.40;1.00
7248;DHT22;3665;51.034;13.642;2022-09-09T09:41:25;20.90;1.00
7248;DHT22;3665;51.034;13.642;2022-09-09T09:47:39;21.60;1.00
7248;DHT22;3665;51.034;13.642;2022-09-09T10:05:57;23.00;1.00
7248;DHT22;3665;51.034;13.642;2022-09-09T10:30:18;24.50;1.00
7248;DHT22;3665;51.034;13.642;2022-09-09T10:35:31;24.00;1.00
7248;DHT22;3665;51.034;13.642;2022-09-09T10:41:00;23.80;1.00
7248;DHT22;3665;51.034;13.642;2022-09-09T10:53:08;24.40;1.00
7248;DHT22;3665;51.034;13.642;2022-09-09T10:58:47;24.60;1.00
7248;DHT22;3665;51.034;13.642;2022-09-09T11:04:35;24.20;1.00
7248;DHT22;3665;51.034;13.642;2022-09-09T11:09:41;23.60;1.00
7248;DHT22;3665;51.034;13.642;2022-09-09T11:15:05;23.30;1.00
7248;DHT22;3665;51.034;13.642;2022-09-09T11:20:11;23.30;1.00
7248;DHT22;3665;51.034;13.642;2022-09-09T11:26:37;23.60;1.00
7248;DHT22;3665;51.034;13.642;2022-09-09T11:33:00;23.50;1.00
7248;DHT22;3665;51.034;13.642;2022-09-09T11:56:03;23.50;1.00
7248;DHT22;3665;51.034;13.642;2022-09-09T12:01:33;24.20;1.00
7248;DHT22;3665;51.034;13.642;2022-09-09T12:07:23;23.80;1.00
7248;DHT22;3665;51.034;13.642;2022-09-09T12:13:15;23.60;1.00
7248;DHT22;3665;51.034;13.642;2022-09-09T12:18:42;23.40;1.00
7248;DHT22;3665;51.034;13.642;2022-09-09T12:30:26;22.90;1.00
7248;DHT22;3665;51.034;13.642;2022-09-09T12:53:45;25.10;1.00
7248;DHT22;3665;51.034;13.642;2022-09-09T12:59:38;25.10;1.00
7248;DHT22;3665;51.034;13.642;2022-09-09T13:05:26;24.20;1.00
7248;DHT22;3665;51.034;13.642;2022-09-09T13:10:50;24.10;1.00
7248;DHT22;3665;51.034;13.642;2022-09-09T14:25:15;22.80;1.00
7248;DHT22;3665;51.034;13.642;2022-09-09T14:37:00;23.20;1.00
7248;DHT22;3665;51.034;13.642;2022-09-09T16:04:05;21.90;1.00
7248;DHT22;3665;51.034;13.642;2022-09-09T16:10:43;21.90;1.00
7248;DHT22;3665;51.034;13.642;2022-09-09T16:17:15;21.70;1.00
7248;DHT22;3665;51.034;13.642;2022-09-09T16:28:38;21.30;1.00
7248;DHT22;3665;51.034;13.642;2022-09-09T16:33:57;21.20;1.00
7248;DHT22;3665;51.034;13.642;2022-09-09T16:44:39;21.10;1.00
7248;DHT22;3665;51.034;13.642;2022-09-09T16:49:56;21.00;1.00
7248;DHT22;3665;51.034;13.642;2022-09-09T16:55:49;20.90;1.00
7248;DHT22;3665;51.034;13.642;2022-09-09T17:01:31;20.90;1.00
7248;DHT22;3665;51.034;13.642;2022-09-09T17:06:32;20.90;1.00
7248;DHT22;3665;51.034;13.642;2022-09-09T17:17:14;20.40;1.00
7248;DHT22;3665;51.034;13.642;2022-09-09T17:23:47;20.10;1.00
7248;DHT22;3665;51.034;13.642;2022-09-09T17:29:47;19.60;1.00
7248;DHT22;3665;51.034;13.642;2022-09-09T17:35:06;19.20;1.00
7248;DHT22;3665;51.034;13.642;2022-09-09T17:47:03;18.60;1.00
7248;DHT22;3665;51.034;13.642;2022-09-09T17:57:41;17.90;1.00
7248;DHT22;3665;51.034;13.642;2022-09-09T18:02:27;17.60;1.00
7248;DHT22;3665;51.034;13.642;2022-09-09T22:42:45;15.50;1.00
7248;DHT22;3665;51.034;13.642;2022-09-09T22:48:25;15.50;1.00
7248;DHT22;3665;51.034;13.642;2022-09-09T22:54:03;15.30;1.00
7248;DHT22;3665;51.034;13.642;2022-09-09T23:00:05;15.30;1.00
7248;DHT22;3665;51.034;13.642;2022-09-09T23:11:50;15.20;1.00
7248;DHT22;3665;51.034;13.642;2022-09-09T23:17:26;15.00;1.00
7248;DHT22;3665;51.034;13.642;2022-09-09T23:23:18;14.90;1.00
7248;DHT22;3665;51.034;13.642;2022-09-09T23:28:58;14.80;1.00
7248;DHT22;3665;51.034;13.642;2022-09-09T23:40:41;14.80;1.00
7248;DHT22;3665;51.034;13.642;2022-09-09T23:52:09;14.60;1.00
